Time;durP1;ratioP1;P1;durP2;ratioP2;P2;SDS_P1;SDS_P2;PMS_P1;PMS_P2;Temp;Humidity;BMP_temperature;BMP_pressure;BME280_temperature;BME280_humidity;BME280_pressure;Samples;Min_cycle;Max_cycle;Signal;HPM_P1;HPM_P2
2023/05/28 00:01:50;;;;;;;;;;;11.40;99.90;;;;;;4933738;29;19934;-79
2023/05/28 00:04:16;;;;;;;;;;;11.40;99.90;;;;;;4935706;29;19935;-79
2023/05/28 00:06:41;;;;;;;;;;;11.40;99.90;;;;;;4920535;29;19927;-79
2023/05/28 00:09:07;;;;;;;;;;;11.40;99.90;;;;;;4935228;29;19955;-79
2023/05/28 00:11:33;;;;;;;;;;;11.50;99.90;;;;;;4921904;29;19968;-79
2023/05/28 00:13:58;;;;;;;;;;;11.40;99.90;;;;;;4920890;29;19927;-79
2023/05/28 00:16:25;;;;;;;;;;;11.50;99.90;;;;;;4934885;29;19927;-79
2023/05/28 00:18:50;;;;;;;;;;;11.40;99.90;;;;;;4935132;29;20330;-79
2023/05/28 00:21:16;;;;;;;;;;;11.40;99.90;;;;;;4936457;29;19939;-78
2023/05/28 00:23:41;;;;;;;;;;;11.50;99.90;;;;;;4935842;29;19985;-79
2023/05/28 00:26:07;;;;;;;;;;;11.50;99.90;;;;;;4935181;29;19935;-79
2023/05/28 00:28:32;;;;;;;;;;;11.40;99.90;;;;;;4937946;29;19912;-79
2023/05/28 00:30:58;;;;;;;;;;;11.40;99.90;;;;;;4936545;29;19935;-79
2023/05/28 00:33:23;;;;;;;;;;;11.40;99.90;;;;;;4936035;29;19934;-79
2023/05/28 00:35:54;;;;;;;;;;;11.40;99.90;;;;;;4937688;29;20009;-79
2023/05/28 00:38:20;;;;;;;;;;;11.40;99.90;;;;;;4915820;29;19928;-79
2023/05/28 00:40:45;;;;;;;;;;;11.40;99.90;;;;;;4937071;29;20066;-79
2023/05/28 00:43:11;;;;;;;;;;;11.40;99.90;;;;;;4937721;29;19947;-79
2023/05/28 00:45:37;;;;;;;;;;;11.40;99.90;;;;;;4937202;29;19990;-79
2023/05/28 00:48:02;;;;;;;;;;;11.40;99.90;;;;;;4939687;29;19927;-78
2023/05/28 00:50:28;;;;;;;;;;;11.40;99.90;;;;;;4940557;29;19934;-78
2023/05/28 00:52:55;;;;;;;;;;;11.40;99.90;;;;;;4942872;29;19935;-78
2023/05/28 00:55:20;;;;;;;;;;;11.40;99.90;;;;;;4940736;29;20028;-78
2023/05/28 00:57:46;;;;;;;;;;;11.30;99.90;;;;;;4940781;29;19967;-78
2023/05/28 01:00:13;;;;;;;;;;;11.20;99.90;;;;;;4924172;29;19915;-78
2023/05/28 01:02:39;;;;;;;;;;;11.30;99.90;;;;;;4939276;29;19953;-78
2023/05/28 01:05:05;;;;;;;;;;;11.30;99.90;;;;;;4940506;29;19931;-78
2023/05/28 01:07:31;;;;;;;;;;;11.30;99.90;;;;;;4927342;29;20016;-78
2023/05/28 01:09:56;;;;;;;;;;;11.30;99.90;;;;;;4904423;29;19988;-78
2023/05/28 01:12:23;;;;;;;;;;;11.30;99.90;;;;;;4940498;29;19927;-78
2023/05/28 01:14:48;;;;;;;;;;;11.30;99.90;;;;;;4937193;29;19927;-78
2023/05/28 01:17:14;;;;;;;;;;;11.40;99.90;;;;;;4933135;29;19918;-78
2023/05/28 01:19:42;;;;;;;;;;;11.30;99.90;;;;;;4938403;29;19934;-78
2023/05/28 01:22:08;;;;;;;;;;;11.30;99.90;;;;;;4938387;29;20301;-79
2023/05/28 01:24:35;;;;;;;;;;;11.30;99.90;;;;;;4924753;29;19928;-79
2023/05/28 01:27:01;;;;;;;;;;;11.30;99.90;;;;;;4902961;29;19935;-78
2023/05/28 01:29:27;;;;;;;;;;;11.20;99.90;;;;;;4922768;29;19927;-79
2023/05/28 01:31:52;;;;;;;;;;;11.30;99.90;;;;;;4926211;29;19911;-79
2023/05/28 01:34:18;;;;;;;;;;;11.30;99.90;;;;;;4942097;29;19955;-79
2023/05/28 01:36:51;;;;;;;;;;;11.20;99.90;;;;;;4941935;29;19974;-79
2023/05/28 01:39:19;;;;;;;;;;;11.20;99.90;;;;;;4925996;29;19907;-79
2023/05/28 01:41:45;;;;;;;;;;;11.30;99.90;;;;;;4909517;29;19927;-79
2023/05/28 01:44:12;;;;;;;;;;;11.30;99.90;;;;;;4941824;29;19966;-81
2023/05/28 01:46:39;;;;;;;;;;;11.30;99.90;;;;;;4925994;29;19934;-79
2023/05/28 01:49:04;;;;;;;;;;;11.30;99.90;;;;;;4942081;29;19927;-79
2023/05/28 01:51:31;;;;;;;;;;;11.20;99.90;;;;;;4941532;29;19934;-79
2023/05/28 01:53:56;;;;;;;;;;;11.20;99.90;;;;;;4942040;29;19955;-79
2023/05/28 01:56:22;;;;;;;;;;;11.10;99.90;;;;;;4941962;29;19927;-79
2023/05/28 01:58:47;;;;;;;;;;;11.10;99.90;;;;;;4924395;29;19911;-79
2023/05/28 02:01:22;;;;;;;;;;;11.10;99.90;;;;;;4940953;29;19934;-79
2023/05/28 02:03:47;;;;;;;;;;;11.20;99.90;;;;;;4941013;29;20411;-79
2023/05/28 02:06:13;;;;;;;;;;;11.10;99.90;;;;;;4941257;29;19924;-79
2023/05/28 02:08:42;;;;;;;;;;;11.10;99.90;;;;;;4938609;29;19959;-78
2023/05/28 02:11:07;;;;;;;;;;;11.20;99.90;;;;;;4939203;29;20008;-78
2023/05/28 02:13:33;;;;;;;;;;;11.10;99.90;;;;;;4923057;29;20282;-78
2023/05/28 02:15:58;;;;;;;;;;;11.10;99.90;;;;;;4940524;29;20002;-78
2023/05/28 02:18:24;;;;;;;;;;;11.20;99.90;;;;;;4941525;29;19911;-79
2023/05/28 02:20:49;;;;;;;;;;;11.10;99.90;;;;;;4941934;29;19927;-79
2023/05/28 02:23:15;;;;;;;;;;;11.20;99.90;;;;;;4924182;29;19938;-79
2023/05/28 02:25:40;;;;;;;;;;;11.10;99.90;;;;;;4941322;29;19927;-78
2023/05/28 02:28:06;;;;;;;;;;;11.10;99.90;;;;;;4940089;29;19978;-78
2023/05/28 02:30:31;;;;;;;;;;;11.10;99.90;;;;;;4939446;29;19927;-78
2023/05/28 02:32:57;;;;;;;;;;;11.10;99.90;;;;;;4937563;29;19927;-78
2023/05/28 02:35:23;;;;;;;;;;;11.10;99.90;;;;;;4938223;29;19952;-79
2023/05/28 02:37:48;;;;;;;;;;;11.20;99.90;;;;;;4942898;29;19928;-79
2023/05/28 02:40:15;;;;;;;;;;;11.20;99.90;;;;;;4936628;29;19951;-79
2023/05/28 02:42:40;;;;;;;;;;;11.30;99.90;;;;;;4920874;29;19938;-79
2023/05/28 02:45:06;;;;;;;;;;;11.20;99.90;;;;;;4935040;29;19927;-80
2023/05/28 02:47:32;;;;;;;;;;;11.10;99.90;;;;;;4929939;29;20029;-79
2023/05/28 02:49:57;;;;;;;;;;;11.10;99.90;;;;;;4904698;29;20358;-79
2023/05/28 02:52:23;;;;;;;;;;;11.10;99.90;;;;;;4922285;29;19966;-79
2023/05/28 02:54:48;;;;;;;;;;;11.10;99.90;;;;;;4928791;29;19927;-79
2023/05/28 02:57:14;;;;;;;;;;;11.10;99.90;;;;;;4934492;29;20374;-78
2023/05/28 02:59:39;;;;;;;;;;;11.00;99.90;;;;;;4928446;29;20384;-79
2023/05/28 03:02:05;;;;;;;;;;;11.00;99.90;;;;;;4924898;29;19931;-78
2023/05/28 03:04:31;;;;;;;;;;;11.00;99.90;;;;;;4927576;29;19927;-78
2023/05/28 03:06:56;;;;;;;;;;;11.00;99.90;;;;;;4921084;29;19928;-77
2023/05/28 03:09:22;;;;;;;;;;;11.00;99.90;;;;;;4907402;29;19952;-77
2023/05/28 03:11:47;;;;;;;;;;;11.00;99.90;;;;;;4904122;29;19979;-77
2023/05/28 03:14:13;;;;;;;;;;;11.00;99.90;;;;;;4904451;29;19927;-78
2023/05/28 03:16:38;;;;;;;;;;;11.10;99.90;;;;;;4901111;29;19932;-78
2023/05/28 03:19:04;;;;;;;;;;;11.00;99.90;;;;;;4884617;29;19982;-78
2023/05/28 03:21:30;;;;;;;;;;;11.00;99.90;;;;;;4900887;29;20374;-78
2023/05/28 03:23:55;;;;;;;;;;;11.00;99.90;;;;;;4901227;29;19931;-78
2023/05/28 03:26:21;;;;;;;;;;;10.90;99.90;;;;;;4904451;29;19934;-79
2023/05/28 03:28:47;;;;;;;;;;;10.90;99.90;;;;;;4902557;29;19928;-78
2023/05/28 03:31:13;;;;;;;;;;;10.90;99.90;;;;;;4901643;29;19933;-78
2023/05/28 03:33:38;;;;;;;;;;;10.90;99.90;;;;;;4900084;29;20055;-78
2023/05/28 03:36:05;;;;;;;;;;;10.90;99.90;;;;;;4883551;29;19927;-78
2023/05/28 03:38:31;;;;;;;;;;;10.90;99.90;;;;;;4883473;29;19950;-78
2023/05/28 03:40:57;;;;;;;;;;;10.90;99.90;;;;;;4899635;29;19931;-78
2023/05/28 03:43:22;;;;;;;;;;;10.90;99.90;;;;;;4883434;29;19970;-78
2023/05/28 03:45:48;;;;;;;;;;;10.80;99.90;;;;;;4902026;29;20396;-78
2023/05/28 03:48:13;;;;;;;;;;;11.10;99.90;;;;;;4889524;29;20406;-78
2023/05/28 03:50:39;;;;;;;;;;;10.90;99.90;;;;;;4896933;29;20373;-78
2023/05/28 03:53:05;;;;;;;;;;;11.00;99.90;;;;;;4897396;29;19927;-78
2023/05/28 03:55:32;;;;;;;;;;;10.90;99.90;;;;;;4893502;29;20732;-78
2023/05/28 03:57:57;;;;;;;;;;;10.90;99.90;;;;;;4884169;29;20023;-78
2023/05/28 04:00:23;;;;;;;;;;;10.90;99.90;;;;;;4880525;29;19983;-78
2023/05/28 04:02:49;;;;;;;;;;;10.80;99.90;;;;;;4895731;29;19928;-78
2023/05/28 04:05:15;;;;;;;;;;;10.90;99.90;;;;;;4882847;29;19955;-79
2023/05/28 04:07:40;;;;;;;;;;;10.90;99.90;;;;;;4902092;29;19934;-78
2023/05/28 04:10:06;;;;;;;;;;;10.90;99.90;;;;;;4901960;29;19935;-78
2023/05/28 04:12:32;;;;;;;;;;;10.90;99.90;;;;;;4887371;29;19935;-79
2023/05/28 04:14:58;;;;;;;;;;;10.90;99.90;;;;;;4890916;29;20322;-78
2023/05/28 04:17:24;;;;;;;;;;;10.90;99.90;;;;;;4917220;29;20006;-78
2023/05/28 04:19:51;;;;;;;;;;;10.90;99.90;;;;;;4919623;29;19998;-78
2023/05/28 04:22:17;;;;;;;;;;;10.90;99.90;;;;;;4921557;29;19931;-78
2023/05/28 04:24:42;;;;;;;;;;;10.90;99.90;;;;;;4916407;29;19927;-78
2023/05/28 04:27:08;;;;;;;;;;;10.90;99.90;;;;;;4921541;29;20013;-78
2023/05/28 04:29:33;;;;;;;;;;;11.00;99.90;;;;;;4903858;29;19991;-78
2023/05/28 04:31:59;;;;;;;;;;;11.00;99.90;;;;;;4890384;29;19927;-78
2023/05/28 04:34:25;;;;;;;;;;;11.00;99.90;;;;;;4906541;29;19938;-78
2023/05/28 04:36:56;;;;;;;;;;;11.10;99.90;;;;;;4914258;29;20292;-78
2023/05/28 04:39:22;;;;;;;;;;;11.10;99.90;;;;;;4919242;29;20409;-79
2023/05/28 04:41:48;;;;;;;;;;;11.10;99.90;;;;;;4917340;29;20044;-78
2023/05/28 04:44:15;;;;;;;;;;;11.10;99.90;;;;;;4904072;29;19970;-78
2023/05/28 04:46:45;;;;;;;;;;;11.10;99.90;;;;;;4902867;29;19927;-79
2023/05/28 04:49:11;;;;;;;;;;;11.20;99.90;;;;;;4922226;29;19950;-78
2023/05/28 04:51:38;;;;;;;;;;;11.20;99.90;;;;;;4925923;29;19927;-79
2023/05/28 04:54:03;;;;;;;;;;;11.30;99.90;;;;;;4909325;29;19951;-79
2023/05/28 04:56:29;;;;;;;;;;;11.40;99.90;;;;;;4927023;29;19927;-78
2023/05/28 04:58:55;;;;;;;;;;;11.40;99.90;;;;;;4919374;29;19928;-78
2023/05/28 05:01:22;;;;;;;;;;;11.40;99.90;;;;;;4934418;29;19999;-79
2023/05/28 05:03:47;;;;;;;;;;;11.60;99.90;;;;;;4936391;29;19974;-79
2023/05/28 05:06:13;;;;;;;;;;;11.50;99.90;;;;;;4928776;29;19927;-79
2023/05/28 05:08:39;;;;;;;;;;;11.50;99.90;;;;;;4926355;29;19927;-79
2023/05/28 05:11:06;;;;;;;;;;;11.50;99.90;;;;;;4921234;29;19978;-79
2023/05/28 05:13:32;;;;;;;;;;;11.50;99.90;;;;;;4903149;29;19934;-79
2023/05/28 05:15:57;;;;;;;;;;;11.50;99.90;;;;;;4924815;29;20013;-79
2023/05/28 05:18:23;;;;;;;;;;;11.60;99.90;;;;;;4920304;29;19927;-80
2023/05/28 05:20:48;;;;;;;;;;;11.80;99.90;;;;;;4931355;29;19927;-79
2023/05/28 05:23:14;;;;;;;;;;;12.00;99.90;;;;;;4928607;29;19934;-79
2023/05/28 05:25:40;;;;;;;;;;;12.20;99.90;;;;;;4925015;29;19927;-78
2023/05/28 05:28:05;;;;;;;;;;;12.30;99.90;;;;;;4926059;29;19953;-79
2023/05/28 05:30:31;;;;;;;;;;;12.50;99.90;;;;;;4924633;29;19979;-79
2023/05/28 05:32:56;;;;;;;;;;;12.60;99.90;;;;;;4924898;29;20389;-80
2023/05/28 05:35:22;;;;;;;;;;;12.70;99.90;;;;;;4924750;29;19934;-79
2023/05/28 05:37:47;;;;;;;;;;;12.70;99.90;;;;;;4919190;29;20467;-80
2023/05/28 05:40:13;;;;;;;;;;;12.90;99.90;;;;;;4933135;29;19927;-79
2023/05/28 05:42:38;;;;;;;;;;;13.00;99.90;;;;;;4923425;29;19928;-80
2023/05/28 05:45:05;;;;;;;;;;;13.20;99.90;;;;;;4927563;29;19974;-79
2023/05/28 05:47:31;;;;;;;;;;;13.40;99.90;;;;;;4927294;29;19987;-79
2023/05/28 05:49:57;;;;;;;;;;;13.60;99.90;;;;;;4927470;29;19970;-80
2023/05/28 05:52:23;;;;;;;;;;;13.80;99.90;;;;;;4930228;29;20352;-80
2023/05/28 05:54:48;;;;;;;;;;;14.00;99.90;;;;;;4930632;29;19981;-80
2023/05/28 05:57:14;;;;;;;;;;;14.30;99.90;;;;;;4923586;29;19927;-80
2023/05/28 05:59:40;;;;;;;;;;;14.50;99.90;;;;;;4925953;29;19979;-80
2023/05/28 06:02:06;;;;;;;;;;;14.80;99.90;;;;;;4906669;29;19938;-77
2023/05/28 06:04:33;;;;;;;;;;;15.00;99.90;;;;;;4900291;29;20038;-77
2023/05/28 06:07:05;;;;;;;;;;;15.20;99.90;;;;;;4902949;29;19927;-78
2023/05/28 06:09:31;;;;;;;;;;;15.40;99.90;;;;;;4924727;29;19982;-78
2023/05/28 06:11:57;;;;;;;;;;;15.40;99.90;;;;;;4923407;29;20404;-79
2023/05/28 06:14:23;;;;;;;;;;;15.50;99.90;;;;;;4914151;29;19982;-80
2023/05/28 06:16:48;;;;;;;;;;;15.50;99.90;;;;;;4928247;29;19966;-80
2023/05/28 06:19:14;;;;;;;;;;;15.40;99.90;;;;;;4920252;29;19934;-80
2023/05/28 06:21:40;;;;;;;;;;;15.10;99.90;;;;;;4910540;29;19927;-79
2023/05/28 06:24:06;;;;;;;;;;;15.00;99.90;;;;;;4918087;29;19954;-79
2023/05/28 06:26:32;;;;;;;;;;;14.90;99.90;;;;;;4931933;29;19934;-78
2023/05/28 06:28:57;;;;;;;;;;;14.90;99.90;;;;;;4911484;29;19927;-79
2023/05/28 06:31:23;;;;;;;;;;;14.90;99.90;;;;;;4928009;29;20445;-79
2023/05/28 06:33:48;;;;;;;;;;;15.00;99.90;;;;;;4897620;29;19928;-80
2023/05/28 06:36:14;;;;;;;;;;;15.10;99.90;;;;;;4929800;29;19934;-80
2023/05/28 06:38:39;;;;;;;;;;;15.10;99.90;;;;;;4910440;29;20050;-81
2023/05/28 06:41:05;;;;;;;;;;;15.10;99.90;;;;;;4906382;29;19931;-80
2023/05/28 06:43:31;;;;;;;;;;;15.10;99.90;;;;;;4915452;29;19934;-80
2023/05/28 06:45:56;;;;;;;;;;;15.10;99.90;;;;;;4920869;29;19927;-80
2023/05/28 06:48:22;;;;;;;;;;;15.10;99.90;;;;;;4905519;29;19934;-79
2023/05/28 06:50:47;;;;;;;;;;;15.00;99.90;;;;;;4900983;29;19927;-79
2023/05/28 06:53:13;;;;;;;;;;;15.00;99.90;;;;;;4919465;29;19935;-80
2023/05/28 06:55:38;;;;;;;;;;;15.20;99.90;;;;;;4932125;29;19978;-78
2023/05/28 06:58:04;;;;;;;;;;;15.20;99.90;;;;;;4919651;29;19942;-79
2023/05/28 07:00:30;;;;;;;;;;;15.10;99.90;;;;;;4924812;29;20456;-79
2023/05/28 07:02:58;;;;;;;;;;;15.20;99.90;;;;;;4921446;29;19931;-81
2023/05/28 07:05:24;;;;;;;;;;;15.30;99.90;;;;;;4925623;29;20018;-80
2023/05/28 07:07:49;;;;;;;;;;;15.50;99.90;;;;;;4903028;29;19971;-78
2023/05/28 07:10:15;;;;;;;;;;;15.50;99.90;;;;;;4905690;29;20472;-81
2023/05/28 07:12:41;;;;;;;;;;;15.60;99.90;;;;;;4889599;29;19934;-78
2023/05/28 07:15:10;;;;;;;;;;;15.70;99.90;;;;;;4904442;29;19927;-80
2023/05/28 07:17:35;;;;;;;;;;;15.70;99.90;;;;;;4908491;29;19937;-80
2023/05/28 07:20:01;;;;;;;;;;;15.80;99.90;;;;;;4904847;29;19934;-82
2023/05/28 07:22:29;;;;;;;;;;;15.80;99.90;;;;;;4890880;29;19928;-79
2023/05/28 07:24:55;;;;;;;;;;;15.90;99.90;;;;;;4907131;29;19927;-78
2023/05/28 07:27:20;;;;;;;;;;;16.00;99.90;;;;;;4909731;29;19935;-80
2023/05/28 07:29:46;;;;;;;;;;;16.00;99.90;;;;;;4901934;29;19993;-79
2023/05/28 07:32:12;;;;;;;;;;;16.10;99.90;;;;;;4911150;29;19966;-80
2023/05/28 07:34:39;;;;;;;;;;;16.30;99.90;;;;;;4916799;29;19978;-80
2023/05/28 07:37:04;;;;;;;;;;;16.30;99.90;;;;;;4907237;29;20397;-79
2023/05/28 07:39:30;;;;;;;;;;;16.50;99.90;;;;;;4907311;29;19973;-80
2023/05/28 07:41:55;;;;;;;;;;;16.50;99.90;;;;;;4890119;29;19939;-80
2023/05/28 07:44:21;;;;;;;;;;;16.50;99.90;;;;;;4908312;29;20029;-79
2023/05/28 07:46:46;;;;;;;;;;;16.50;99.90;;;;;;4912334;29;19986;-79
2023/05/28 07:49:12;;;;;;;;;;;16.40;98.30;;;;;;4893476;29;19952;-80
2023/05/28 07:51:38;;;;;;;;;;;16.40;99.10;;;;;;4907593;29;20331;-80
2023/05/28 07:54:03;;;;;;;;;;;16.50;98.50;;;;;;4901768;29;19927;-79
2023/05/28 07:56:29;;;;;;;;;;;16.60;98.30;;;;;;4891484;29;19991;-81
2023/05/28 07:58:55;;;;;;;;;;;16.60;99.00;;;;;;4911724;29;19991;-79
2023/05/28 08:01:21;;;;;;;;;;;16.70;99.20;;;;;;4906390;29;19927;-79
2023/05/28 08:03:51;;;;;;;;;;;16.90;98.20;;;;;;4887695;29;19935;-81
2023/05/28 08:06:19;;;;;;;;;;;17.00;96.70;;;;;;4904545;29;19931;-80
2023/05/28 08:08:45;;;;;;;;;;;17.00;97.70;;;;;;4907526;29;20254;-79
2023/05/28 08:11:13;;;;;;;;;;;17.00;97.00;;;;;;4911771;29;19936;-81
2023/05/28 08:13:38;;;;;;;;;;;17.00;97.20;;;;;;4907487;29;19928;-80
2023/05/28 08:16:04;;;;;;;;;;;17.00;95.60;;;;;;4908897;29;19934;-80
2023/05/28 08:18:30;;;;;;;;;;;17.00;95.90;;;;;;4907485;29;19927;-79
2023/05/28 08:20:55;;;;;;;;;;;17.10;96.20;;;;;;4911885;29;19982;-79
2023/05/28 08:23:21;;;;;;;;;;;17.10;97.70;;;;;;4917194;29;20413;-81
2023/05/28 08:25:46;;;;;;;;;;;17.30;97.80;;;;;;4885261;29;20022;-80
2023/05/28 08:28:13;;;;;;;;;;;17.30;98.00;;;;;;4910674;29;19935;-79
2023/05/28 08:30:39;;;;;;;;;;;17.50;96.30;;;;;;4907693;29;19967;-79
2023/05/28 08:33:04;;;;;;;;;;;17.50;96.00;;;;;;4905138;29;19934;-79
2023/05/28 08:35:30;;;;;;;;;;;17.50;96.70;;;;;;4898955;29;19990;-78
2023/05/28 08:37:56;;;;;;;;;;;17.50;97.50;;;;;;4891758;29;19932;-77
2023/05/28 08:40:21;;;;;;;;;;;17.70;97.70;;;;;;4907427;29;19927;-79
2023/05/28 08:42:49;;;;;;;;;;;17.70;97.20;;;;;;4916774;29;19931;-80
2023/05/28 08:45:14;;;;;;;;;;;17.80;96.90;;;;;;4907867;29;19928;-80
2023/05/28 08:47:40;;;;;;;;;;;17.80;96.90;;;;;;4907196;29;19928;-80
2023/05/28 08:50:06;;;;;;;;;;;17.90;97.40;;;;;;4899601;29;19939;-80
2023/05/28 08:52:33;;;;;;;;;;;17.80;96.60;;;;;;4912345;29;19931;-80
2023/05/28 08:54:59;;;;;;;;;;;17.80;97.20;;;;;;4907558;29;19928;-81
2023/05/28 08:57:25;;;;;;;;;;;18.00;96.70;;;;;;4903629;29;19928;-78
2023/05/28 08:59:52;;;;;;;;;;;18.00;97.00;;;;;;4891455;29;19983;-81
2023/05/28 09:02:18;;;;;;;;;;;18.30;96.80;;;;;;4913805;29;19983;-80
2023/05/28 09:04:46;;;;;;;;;;;18.20;96.50;;;;;;4915431;29;19935;-80
2023/05/28 09:07:12;;;;;;;;;;;18.20;97.50;;;;;;4910767;29;19931;-82
2023/05/28 09:09:41;;;;;;;;;;;18.20;98.50;;;;;;4922203;29;19932;-80
2023/05/28 09:12:10;;;;;;;;;;;18.30;97.10;;;;;;4901845;29;19940;-81
2023/05/28 09:14:41;;;;;;;;;;;18.30;96.50;;;;;;4916798;29;19931;-79
2023/05/28 09:17:09;;;;;;;;;;;18.40;95.90;;;;;;4917393;29;19950;-79
2023/05/28 09:19:36;;;;;;;;;;;18.50;95.80;;;;;;4911629;29;19934;-80
2023/05/28 09:22:03;;;;;;;;;;;18.60;96.10;;;;;;4902185;29;19953;-80
2023/05/28 09:24:29;;;;;;;;;;;18.60;95.20;;;;;;4919414;29;19934;-79
2023/05/28 09:26:55;;;;;;;;;;;18.60;95.00;;;;;;4918419;29;19930;-81
2023/05/28 09:29:22;;;;;;;;;;;18.60;95.70;;;;;;4916752;29;19927;-79
2023/05/28 09:31:58;;;;;;;;;;;18.80;94.90;;;;;;4922314;29;19927;-82
2023/05/28 09:34:27;;;;;;;;;;;18.90;95.10;;;;;;4919581;29;19934;-79
2023/05/28 09:36:53;;;;;;;;;;;18.90;94.40;;;;;;4921921;29;19911;-79
2023/05/28 09:39:23;;;;;;;;;;;19.20;94.30;;;;;;4920726;29;19956;-79
2023/05/28 09:41:57;;;;;;;;;;;19.30;94.70;;;;;;4922454;29;19912;-80
2023/05/28 09:44:22;;;;;;;;;;;19.30;93.70;;;;;;4919299;29;19927;-80
2023/05/28 09:46:48;;;;;;;;;;;19.20;93.30;;;;;;4902855;29;20293;-83
2023/05/28 09:49:14;;;;;;;;;;;19.20;92.30;;;;;;4921561;29;19916;-80
2023/05/28 09:51:41;;;;;;;;;;;19.20;91.60;;;;;;4914942;29;19936;-79
2023/05/28 09:54:09;;;;;;;;;;;19.20;92.90;;;;;;4913772;29;19927;-80
2023/05/28 09:56:37;;;;;;;;;;;19.30;94.50;;;;;;4902424;29;19935;-80
2023/05/28 09:59:06;;;;;;;;;;;19.40;90.90;;;;;;4905601;29;19959;-81
2023/05/28 10:01:41;;;;;;;;;;;19.50;88.90;;;;;;4898697;29;19935;-81
2023/05/28 10:04:08;;;;;;;;;;;19.60;90.20;;;;;;4908108;29;19967;-81
2023/05/28 10:06:36;;;;;;;;;;;19.80;90.50;;;;;;4908021;29;20343;-80
2023/05/28 10:09:02;;;;;;;;;;;20.00;90.60;;;;;;4898688;29;19934;-80
2023/05/28 10:11:30;;;;;;;;;;;20.10;89.00;;;;;;4909478;29;19928;-79
2023/05/28 10:13:56;;;;;;;;;;;20.10;89.20;;;;;;4903559;29;19939;-79
2023/05/28 10:16:21;;;;;;;;;;;20.20;90.10;;;;;;4916736;29;19927;-79
2023/05/28 10:18:47;;;;;;;;;;;20.30;89.60;;;;;;4913709;29;19960;-79
2023/05/28 10:21:13;;;;;;;;;;;20.20;89.40;;;;;;4915088;29;19935;-79
2023/05/28 10:23:42;;;;;;;;;;;20.10;85.20;;;;;;4914204;29;19991;-79
2023/05/28 10:26:08;;;;;;;;;;;20.00;83.70;;;;;;4897065;29;20000;-80
2023/05/28 10:28:34;;;;;;;;;;;20.00;84.20;;;;;;4918286;29;19923;-82
2023/05/28 10:31:03;;;;;;;;;;;20.00;82.80;;;;;;4921878;29;19959;-81
2023/05/28 10:33:28;;;;;;;;;;;20.20;84.30;;;;;;4922044;29;19928;-80
2023/05/28 10:35:55;;;;;;;;;;;20.40;84.40;;;;;;4886259;29;19928;-79
2023/05/28 10:38:21;;;;;;;;;;;20.50;83.80;;;;;;4918273;29;19928;-83
2023/05/28 10:40:50;;;;;;;;;;;20.70;83.70;;;;;;4921625;29;19927;-80
2023/05/28 10:43:35;;;;;;;;;;;20.80;84.40;;;;;;4919100;29;20013;-81
2023/05/28 10:46:00;;;;;;;;;;;20.90;80.60;;;;;;4891597;29;19927;-83
2023/05/28 10:48:29;;;;;;;;;;;20.70;81.80;;;;;;4911399;29;19934;-83
2023/05/28 10:50:58;;;;;;;;;;;20.60;83.60;;;;;;4923078;29;19927;-79
2023/05/28 10:53:24;;;;;;;;;;;20.60;82.10;;;;;;4909653;29;20405;-80
2023/05/28 10:55:54;;;;;;;;;;;20.60;82.10;;;;;;4911289;29;19928;-80
2023/05/28 10:58:25;;;;;;;;;;;20.60;83.80;;;;;;4909507;29;19927;-78
2023/05/28 11:00:51;;;;;;;;;;;20.60;86.10;;;;;;4916848;29;19928;-79
2023/05/28 11:03:16;;;;;;;;;;;20.70;86.50;;;;;;4910295;29;19971;-80
2023/05/28 11:05:43;;;;;;;;;;;20.80;87.20;;;;;;4914225;29;19952;-81
2023/05/28 11:08:09;;;;;;;;;;;20.90;88.30;;;;;;4918294;29;19933;-81
2023/05/28 11:10:34;;;;;;;;;;;20.80;89.20;;;;;;4903226;29;19987;-79
2023/05/28 11:13:01;;;;;;;;;;;20.90;90.20;;;;;;4903839;29;19934;-80
2023/05/28 11:15:26;;;;;;;;;;;21.10;90.00;;;;;;4908122;29;19927;-81
2023/05/28 11:17:52;;;;;;;;;;;21.10;90.80;;;;;;4902533;29;20062;-81
2023/05/28 11:20:18;;;;;;;;;;;21.00;89.40;;;;;;4909413;29;19951;-81
2023/05/28 11:22:43;;;;;;;;;;;21.10;89.30;;;;;;4910717;29;19927;-80
2023/05/28 11:25:09;;;;;;;;;;;21.00;90.80;;;;;;4897399;29;19962;-78
2023/05/28 11:27:36;;;;;;;;;;;21.00;90.60;;;;;;4902266;29;20018;-79
2023/05/28 11:30:11;;;;;;;;;;;21.20;91.10;;;;;;4886995;29;19928;-81
2023/05/28 11:32:36;;;;;;;;;;;21.20;91.40;;;;;;4878413;29;20394;-78
2023/05/28 11:35:02;;;;;;;;;;;21.00;92.30;;;;;;4907446;29;19934;-77
2023/05/28 11:37:29;;;;;;;;;;;21.10;92.30;;;;;;4920289;29;19927;-80
2023/05/28 11:39:55;;;;;;;;;;;21.10;92.30;;;;;;4918837;29;19935;-80
2023/05/28 11:42:21;;;;;;;;;;;21.00;92.70;;;;;;4906771;29;19931;-82
2023/05/28 11:44:48;;;;;;;;;;;20.90;93.00;;;;;;4889808;29;19932;-81
2023/05/28 11:47:14;;;;;;;;;;;21.00;93.10;;;;;;4911963;29;20137;-80
2023/05/28 11:49:58;;;;;;;;;;;20.80;93.10;;;;;;4904944;29;19973;-82
2023/05/28 11:52:24;;;;;;;;;;;20.70;93.30;;;;;;4915312;29;19927;-82
2023/05/28 11:54:54;;;;;;;;;;;20.50;93.80;;;;;;4912262;29;19937;-81
2023/05/28 11:57:23;;;;;;;;;;;20.50;94.60;;;;;;4910307;29;20346;-80
2023/05/28 11:59:56;;;;;;;;;;;20.70;94.40;;;;;;4901993;29;19927;-80
2023/05/28 12:02:22;;;;;;;;;;;20.40;94.40;;;;;;4911422;29;20030;-82
2023/05/28 12:04:57;;;;;;;;;;;20.40;94.10;;;;;;4910393;29;19950;-80
2023/05/28 12:07:33;;;;;;;;;;;20.20;94.80;;;;;;4908553;29;19938;-80
2023/05/28 12:10:03;;;;;;;;;;;19.90;95.40;;;;;;4918979;29;19977;-83
2023/05/28 12:12:31;;;;;;;;;;;20.00;95.80;;;;;;4934748;29;19969;-80
2023/05/28 12:14:58;;;;;;;;;;;19.90;95.90;;;;;;4912309;29;20025;-82
2023/05/28 12:17:24;;;;;;;;;;;19.90;96.30;;;;;;4927634;29;20013;-80
2023/05/28 12:19:50;;;;;;;;;;;19.90;96.60;;;;;;4933018;29;19927;-81
2023/05/28 12:22:24;;;;;;;;;;;20.00;96.30;;;;;;4911490;29;19927;-80
2023/05/28 12:24:51;;;;;;;;;;;20.00;97.30;;;;;;4931142;29;19935;-81
2023/05/28 12:27:17;;;;;;;;;;;20.00;97.10;;;;;;4933343;29;19935;-81
2023/05/28 12:29:43;;;;;;;;;;;20.20;97.10;;;;;;4923120;29;19928;-81
2023/05/28 12:32:12;;;;;;;;;;;20.40;96.80;;;;;;4917074;29;19931;-80
2023/05/28 12:34:37;;;;;;;;;;;20.40;97.30;;;;;;4930409;29;19927;-80
2023/05/28 12:37:03;;;;;;;;;;;20.50;97.20;;;;;;4923848;29;19973;-81
2023/05/28 12:39:35;;;;;;;;;;;20.50;96.20;;;;;;4916904;29;19937;-81
2023/05/28 12:42:01;;;;;;;;;;;20.40;96.10;;;;;;4924237;29;19931;-80
2023/05/28 12:44:27;;;;;;;;;;;20.30;95.90;;;;;;4933470;29;19934;-81
2023/05/28 12:46:52;;;;;;;;;;;20.00;96.00;;;;;;4929986;29;19933;-82
2023/05/28 12:49:18;;;;;;;;;;;19.90;96.50;;;;;;4912764;29;19931;-81
2023/05/28 12:51:43;;;;;;;;;;;19.90;96.40;;;;;;4926393;29;19989;-80
2023/05/28 12:54:09;;;;;;;;;;;19.80;96.50;;;;;;4930098;29;19941;-79
2023/05/28 12:56:34;;;;;;;;;;;19.70;96.80;;;;;;4944920;29;20014;-79
2023/05/28 12:59:00;;;;;;;;;;;19.50;97.00;;;;;;4930479;29;20381;-81
2023/05/28 13:01:26;;;;;;;;;;;19.50;97.40;;;;;;4897134;29;19931;-81
2023/05/28 13:03:51;;;;;;;;;;;19.60;97.10;;;;;;4926691;29;19935;-83
2023/05/28 13:06:17;;;;;;;;;;;19.50;97.10;;;;;;4930945;29;19927;-82
2023/05/28 13:08:43;;;;;;;;;;;19.60;96.50;;;;;;4928852;29;19927;-81
2023/05/28 13:11:09;;;;;;;;;;;19.50;96.60;;;;;;4912268;29;19934;-80
2023/05/28 13:13:34;;;;;;;;;;;19.60;97.40;;;;;;4918595;29;19927;-82
2023/05/28 13:16:00;;;;;;;;;;;19.70;96.40;;;;;;4901313;29;19927;-81
2023/05/28 13:18:25;;;;;;;;;;;19.60;96.90;;;;;;4899186;29;20062;-81
2023/05/28 13:20:51;;;;;;;;;;;19.70;98.10;;;;;;4913123;29;19933;-81
2023/05/28 13:23:16;;;;;;;;;;;20.10;97.20;;;;;;4898130;29;19927;-79
2023/05/28 13:25:42;;;;;;;;;;;20.00;96.90;;;;;;4925490;29;19928;-81
2023/05/28 13:28:07;;;;;;;;;;;20.00;96.40;;;;;;4926406;29;19959;-80
2023/05/28 13:30:33;;;;;;;;;;;20.10;97.10;;;;;;4898215;29;19959;-80
2023/05/28 13:32:58;;;;;;;;;;;20.20;95.90;;;;;;4932148;29;19927;-79
2023/05/28 13:35:24;;;;;;;;;;;20.30;95.50;;;;;;4932096;29;19927;-80
2023/05/28 13:37:50;;;;;;;;;;;20.10;95.00;;;;;;4914888;29;19927;-79
2023/05/28 13:40:16;;;;;;;;;;;20.00;94.80;;;;;;4901128;29;19950;-79
2023/05/28 13:42:42;;;;;;;;;;;20.00;95.10;;;;;;4931412;29;19995;-79
2023/05/28 13:45:09;;;;;;;;;;;20.20;94.50;;;;;;4918414;29;19923;-79
2023/05/28 13:47:35;;;;;;;;;;;20.30;93.90;;;;;;4921267;29;19951;-78
2023/05/28 13:50:01;;;;;;;;;;;20.40;95.20;;;;;;4933121;29;19927;-77
2023/05/28 13:52:27;;;;;;;;;;;20.50;94.20;;;;;;4928685;29;19974;-80
2023/05/28 13:54:52;;;;;;;;;;;20.70;93.40;;;;;;4909852;29;19935;-78
2023/05/28 13:57:19;;;;;;;;;;;20.70;94.80;;;;;;4903880;29;19928;-77
2023/05/28 13:59:45;;;;;;;;;;;20.70;94.10;;;;;;4914754;29;19930;-79
2023/05/28 14:02:14;;;;;;;;;;;20.90;94.10;;;;;;4927513;29;19927;-78
2023/05/28 14:04:40;;;;;;;;;;;20.90;94.10;;;;;;4926939;29;19984;-78
2023/05/28 14:07:05;;;;;;;;;;;21.00;93.30;;;;;;4907291;29;19973;-78
2023/05/28 14:09:31;;;;;;;;;;;20.90;93.40;;;;;;4908591;29;19923;-78
2023/05/28 14:11:56;;;;;;;;;;;21.00;93.70;;;;;;4922813;29;19927;-79